Latest Weather Observations for Mount Gambier

IDS60801

Issued at 7:31 pm CST Tuesday 24 May 2016 (issued every 30 minutes, with the page automatically refreshed every 10 minutes)

About weather observations | Map of weather stations | Latest weather observations for SA | Other Formats
Station Details ID: 026021 Name: MOUNT GAMBIER AERO Lat: -37.75 Lon: 140.77 Height: 63.0 m
Data from the previous 72 hours. | See also: Recent months at Mount Gambier
Date/Time
CST
Temp
°C
App
Temp
°C
Dew
Point
Rel
Hum
%
Delta-T
°C
Wind Press
QNH
hPa
Press
MSL
hPa
Rain
since 9 am
mm
Dir
 
Spd
km/h
Gust
km/h
Spd
kts
Gust
kts
24/07:30pm 12.1 10.4 11.3 95 0.4 NNE 11 13 6 7 1017.4 1017.4 0.2
24/07:00pm 12.5 11.4 11.9 96 0.3 N 9 13 5 7 1017.5 1017.5 0.2
24/06:30pm 12.6 11.1 12.0 96 0.3 NNE 11 11 6 6 1017.7 1017.7 0.2
24/06:00pm 13.2 12.6 12.3 94 0.5 N 7 9 4 5 1018.0 1018.0 0.2
24/05:30pm 13.8 13.3 12.7 93 0.6 NE 7 7 4 4 1017.7 1017.7 0.2
24/05:00pm 14.8 14.5 13.2 90 0.9 WNW 7 9 4 5 1018.1 1018.1 0.2
24/04:30pm 15.1 14.8 13.3 89 1.0 NW 7 7 4 4 1018.2 1018.2 0.2
24/04:00pm 15.5 14.3 12.8 84 1.5 NW 11 19 6 10 1018.3 1018.3 0.0
24/03:30pm 16.2 14.9 12.4 78 2.1 NNW 11 15 6 8 1018.2 1018.2 0.0
24/03:00pm 16.7 15.1 11.7 72 2.7 N 11 15 6 8 1018.0 1018.0 0.0
24/02:30pm 16.1 13.8 11.7 75 2.4 N 15 19 8 10 1018.0 1018.0 0.0
24/02:00pm 16.8 14.2 12.1 74 2.6 NNW 17 22 9 12 1018.3 1018.3 0.0
24/01:30pm 17.4 15.6 12.1 71 2.9 NNW 13 22 7 12 1018.7 1018.7 0.0
24/01:00pm 17.2 15.1 12.5 74 2.6 N 15 20 8 11 1019.0 1019.0 0.0
24/12:30pm 15.6 13.9 12.5 82 1.7 N 13 17 7 9 1019.5 1019.6 0.0
24/12:00pm 16.6 14.9 12.4 76 2.3 N 13 19 7 10 1019.8 1019.9 0.0
24/11:43am 15.6 13.4 12.1 80 1.9 N 15 22 8 12 1020.0 1020.1 0.0
24/11:30am 15.6 13.1 12.3 81 1.8 N 17 22 9 12 1020.2 1020.3 0.0
24/11:00am 16.0 14.3 12.6 80 1.9 N 13 17 7 9 1020.6 1020.7 0.0
24/10:40am 14.7 13.0 12.5 87 1.2 NNW 13 19 7 10 1021.2 1021.3 0.0
24/10:30am 14.5 12.8 12.5 88 1.1 NNW 13 19 7 10 1021.4 1021.5 0.0
24/10:14am 15.0 13.3 12.4 84 1.4 NNW 13 19 7 10 1021.5 1021.6 0.0
24/10:00am 14.7 13.6 12.1 84 1.4 NNE 9 11 5 6 1021.4 1021.5 0.0
24/09:30am 14.3 13.4 12.7 90 0.9 N 9 13 5 7 1021.4 1021.5 0.0
24/09:00am 12.7 12.2 12.0 95 0.4 WSW 6 7 3 4 1021.7 1021.8 3.6
24/08:40am 12.5 11.8 11.9 96 0.3 WNW 7 9 4 5 1022.0 1022.1 3.6
24/08:30am 12.3 11.2 11.9 97 0.2 NW 9 11 5 6 1022.0 1022.1 3.6
24/08:00am 11.6 9.5 11.2 97 0.2 NNW 13 15 7 8 1021.9 1022.0 3.6
24/07:30am 11.3 9.9 10.9 97 0.2 N 9 15 5 8 1021.7 1021.8 3.6
24/07:00am 10.7 9.1 10.1 96 0.3 NNE 9 9 5 5 1021.5 1021.6 3.6
24/06:30am 10.8 10.9 10.2 96 0.3 CALM 0 0 0 0 1021.1 1021.2 3.6
24/06:00am 10.6 10.7 10.0 96 0.3 CALM 0 0 0 0 1020.9 1021.0 3.6
24/05:30am 10.3 10.3 9.9 97 0.2 CALM 0 0 0 0 1020.7 1020.8 3.6
24/05:00am 9.9 9.8 9.5 97 0.2 CALM 0 0 0 0 1020.4 1020.5 3.6
24/04:30am 8.5 6.8 8.3 99 0.1 NW 7 9 4 5 1020.3 1020.4 3.6
24/04:00am 10.0 7.9 9.8 99 0.1 WNW 11 15 6 8 1020.3 1020.4 3.6
24/03:30am 9.8 8.0 9.4 97 0.2 NW 9 11 5 6 1020.3 1020.4 3.6
24/03:00am 8.5 6.4 8.3 99 0.1 NW 9 11 5 6 1020.4 1020.5 3.6
24/02:30am 9.7 7.5 9.3 97 0.2 NW 11 13 6 7 1020.5 1020.6 3.6
24/02:00am 9.9 7.7 9.3 96 0.3 NW 11 15 6 8 1020.6 1020.7 3.6
24/01:30am 10.1 7.5 9.5 96 0.3 NNW 13 15 7 8 1020.6 1020.7 3.6
24/01:00am 10.3 7.7 9.3 93 0.5 NNW 13 15 7 8 1020.5 1020.6 3.6
24/12:30am 10.1 7.4 9.1 93 0.5 NW 13 13 7 7 1020.5 1020.6 3.6
24/12:00am 10.5 7.8 9.1 91 0.7 NW 13 15 7 8 1020.6 1020.7 3.6
 
Date/Time
CST
Temp
°C
App
Temp
°C
Dew
Point
Rel
Hum
%
Delta-T
°C
Wind Press
QNH
hPa
Press
MSL
hPa
Rain
since 9 am
mm
Dir
 
Spd
km/h
Gust
km/h
Spd
kts
Gust
kts
23/11:30pm 9.8 7.0 8.6 92 0.6 NW 13 15 7 8 1020.7 1020.8 3.6
23/11:00pm 10.2 7.4 8.6 90 0.8 WNW 13 15 7 8 1020.9 1021.0 3.6
23/10:30pm 9.9 7.1 8.5 91 0.7 WNW 13 15 7 8 1021.1 1021.2 3.6
23/10:00pm 10.2 7.8 8.6 90 0.8 WNW 11 13 6 7 1021.1 1021.2 3.6
23/09:30pm 10.1 7.3 8.5 90 0.8 WNW 13 15 7 8 1021.1 1021.2 3.6
23/09:00pm 9.7 6.8 8.3 91 0.7 NW 13 15 7 8 1020.9 1021.0 3.6
23/08:30pm 9.6 6.7 8.1 90 0.7 WNW 13 15 7 8 1020.8 1020.9 3.6
23/08:00pm 10.2 7.4 8.4 89 0.9 WNW 13 13 7 7 1020.7 1020.8 3.6
23/07:30pm 10.3 7.5 8.7 90 0.8 WNW 13 17 7 9 1020.6 1020.7 3.6
23/07:00pm 10.5 7.8 8.9 90 0.8 WNW 13 17 7 9 1020.3 1020.4 3.6
23/06:30pm 10.4 7.7 9.0 91 0.7 WNW 13 15 7 8 1020.2 1020.3 3.6
23/06:00pm 10.8 7.7 8.8 87 1.0 WNW 15 17 8 9 1020.0 1020.1 3.6
23/05:30pm 11.1 8.0 8.9 86 1.1 W 15 17 8 9 1019.7 1019.8 3.6
23/05:00pm 11.9 8.9 9.1 83 1.4 W 15 19 8 10 1019.4 1019.5 3.6
23/04:30pm 13.2 8.5 9.3 77 2.0 W 24 32 13 17 1019.1 1019.2 3.6
23/04:00pm 14.3 11.5 11.3 82 1.6 W 17 26 9 14 1018.9 1018.9 3.6
23/03:30pm 13.3 9.2 11.6 89 0.9 W 24 30 13 16 1018.7 1018.7 3.6
23/03:00pm 13.2 8.3 11.3 88 1.0 W 28 37 15 20 1018.2 1018.2 3.6
23/02:30pm 15.0 11.9 12.2 83 1.5 W 20 33 11 18 1017.9 1017.9 3.6
23/02:00pm 13.9 9.1 11.7 86 1.2 WNW 28 37 15 20 1017.9 1017.9 3.6
23/01:54pm 13.7 8.9 11.6 87 1.1 WNW 28 37 15 20 1017.9 1017.9 3.6
23/01:33pm 13.3 9.4 12.0 92 0.7 WNW 24 33 13 18 1018.0 1018.0 3.4
23/01:30pm 13.3 9.3 11.8 91 0.8 WNW 24 35 13 19 1018.0 1018.0 3.4
23/01:18pm 13.4 9.4 11.9 91 0.8 WNW 24 32 13 17 1017.9 1017.9 3.4
23/01:00pm 13.1 10.0 11.6 91 0.8 WNW 19 32 10 17 1017.9 1017.9 3.4
23/12:58pm 12.8 10.1 11.7 93 0.6 WNW 17 28 9 15 1017.9 1017.9 3.4
23/12:42pm 12.1 8.8 11.0 93 0.6 NW 19 26 10 14 1018.2 1018.2 3.2
23/12:30pm 12.6 9.2 10.7 88 1.0 WNW 19 26 10 14 1018.3 1018.3 2.4
23/12:08pm 12.3 9.4 11.0 92 0.7 W 17 24 9 13 1018.4 1018.4 2.4
23/12:00pm 12.1 7.5 11.0 93 0.6 W 26 37 14 20 1018.7 1018.7 2.4
23/11:46am 12.3 8.8 10.2 87 1.1 W 19 26 10 14 1018.7 1018.7 1.8
23/11:30am 13.6 9.9 9.5 76 2.1 NW 19 28 10 15 1018.4 1018.4 0.0
23/11:00am 14.3 9.5 8.8 69 2.8 NW 24 33 13 18 1018.6 1018.6 0.0
23/10:30am 13.4 9.8 8.4 72 2.5 NW 17 22 9 12 1018.9 1018.9 0.0
23/10:00am 13.2 10.0 8.4 72 2.4 NW 15 19 8 10 1018.9 1018.9 0.0
23/09:30am 12.9 9.7 8.5 74 2.2 WNW 15 19 8 10 1018.7 1018.7 0.0
23/09:00am 11.6 8.6 7.5 76 2.0 WNW 13 17 7 9 1018.5 1018.5 -
23/08:30am 10.8 8.1 7.2 78 1.7 NW 11 13 6 7 1018.3 1018.3 -
23/08:00am 9.0 5.4 6.6 85 1.1 NNW 15 17 8 9 1018.3 1018.3 -
23/07:30am 8.9 5.5 6.1 82 1.3 WNW 13 15 7 8 1017.7 1017.7 -
23/07:00am 8.5 4.3 5.6 82 1.3 W 17 19 9 10 1017.3 1017.3 -
23/06:30am 8.5 4.7 5.9 84 1.2 W 15 19 8 10 1016.6 1016.6 14.8
23/06:00am 8.5 5.2 6.6 88 0.9 WNW 13 15 7 8 1016.3 1016.3 14.8
23/05:30am 8.5 4.9 6.8 89 0.8 W 15 22 8 12 1015.9 1015.9 14.8
23/05:00am 8.1 4.9 7.0 93 0.5 NNW 13 15 7 8 1015.0 1015.0 14.8
23/04:30am 8.5 5.4 7.2 91 0.6 WNW 13 15 7 8 1014.6 1014.6 14.8
23/04:08am 9.1 4.0 7.6 90 0.7 W 24 30 13 16 1014.4 1014.4 14.8
23/04:02am 9.1 2.5 7.8 92 0.6 WNW 32 50 17 27 1014.3 1014.3 14.8
23/04:00am 9.2 2.4 7.7 90 0.7 WNW 33 50 18 27 1014.2 1014.2 14.8
23/03:52am 9.2 2.9 7.3 88 0.9 W 30 50 16 27 1014.3 1014.3 14.8
23/03:51am 9.1 3.2 7.4 89 0.8 W 28 41 15 22 1014.3 1014.3 14.6
23/03:49am 9.1 3.3 7.8 92 0.6 W 28 41 15 22 1014.5 1014.5 14.4
23/03:30am 9.3 5.5 7.6 89 0.8 W 17 20 9 11 1013.5 1013.5 13.2
23/03:00am 9.2 3.3 7.3 88 0.9 W 28 35 15 19 1012.7 1012.7 12.8
23/02:48am 9.1 2.2 7.4 89 0.8 W 33 50 18 27 1012.7 1012.7 12.8
23/02:32am 9.3 0.1 7.8 90 0.7 W 46 74 25 40 1013.0 1013.0 12.4
23/02:31am 9.3 0.4 7.8 90 0.7 WNW 44 74 24 40 1012.9 1012.9 12.4
23/02:30am 9.3 0.6 7.8 90 0.7 WNW 43 74 23 40 1012.9 1012.9 12.4
23/02:29am 9.4 1.6 8.2 92 0.6 WNW 39 74 21 40 1012.9 1012.9 12.4
23/02:28am 9.5 2.5 8.5 93 0.5 WNW 35 74 19 40 1012.9 1012.9 12.2
23/02:24am 10.4 4.9 9.2 92 0.6 WNW 28 56 15 30 1012.3 1012.3 12.0
23/02:00am 10.1 4.5 8.7 91 0.7 NW 28 35 15 19 1011.5 1011.5 12.0
23/01:30am 10.0 4.7 8.6 91 0.7 NNW 26 37 14 20 1010.5 1010.6 11.6
23/01:00am 10.1 6.4 9.3 95 0.4 NNW 19 28 10 15 1010.8 1010.8 11.6
23/12:30am 10.2 5.9 9.2 93 0.5 NW 22 33 12 18 1010.4 1010.5 11.6
23/12:01am 10.1 4.5 8.9 92 0.6 WNW 28 48 15 26 1010.8 1010.8 11.4
23/12:00am 10.2 4.3 9.0 92 0.6 WNW 30 48 16 26 1010.9 1010.9 11.4
 
Date/Time
CST
Temp
°C
App
Temp
°C
Dew
Point
Rel
Hum
%
Delta-T
°C
Wind Press
QNH
hPa
Press
MSL
hPa
Rain
since 9 am
mm
Dir
 
Spd
km/h
Gust
km/h
Spd
kts
Gust
kts
22/11:50pm 10.3 1.9 8.9 91 0.7 WNW 43 67 23 36 1010.9 1010.9 11.2
22/11:47pm 10.4 3.2 9.0 91 0.7 NW 37 67 20 36 1011.0 1011.0 11.2
22/11:46pm 10.5 4.0 8.9 90 0.8 NW 33 67 18 36 1010.9 1010.9 11.2
22/11:44pm 10.7 5.3 9.5 92 0.6 NW 28 63 15 34 1010.9 1010.9 11.2
22/11:30pm 11.9 7.6 10.9 94 0.5 NNW 24 32 13 17 1009.9 1010.0 10.8
22/11:00pm 11.9 8.7 11.3 96 0.3 NNW 19 30 10 16 1009.6 1009.7 10.8
22/10:30pm 12.1 9.0 11.5 96 0.3 N 19 28 10 15 1009.5 1009.6 10.6
22/10:00pm 12.2 8.1 11.4 95 0.4 NNW 24 35 13 19 1009.5 1009.6 10.6
22/09:41pm 12.2 9.0 11.4 95 0.4 NNW 19 28 10 15 1009.6 1009.7 10.2
22/09:30pm 12.2 8.8 11.4 95 0.4 N 20 30 11 16 1009.4 1009.5 10.0
22/09:24pm 12.2 8.8 11.4 95 0.4 N 20 28 11 15 1009.5 1009.6 10.0
22/09:13pm 12.3 9.5 11.5 95 0.4 NNW 17 26 9 14 1009.6 1009.7 10.0
22/09:09pm 12.3 9.5 11.5 95 0.4 NNW 17 26 9 14 1009.7 1009.8 9.8
22/09:00pm 12.3 9.5 11.5 95 0.4 NNW 17 22 9 12 1009.4 1009.5 9.0
22/08:30pm 12.6 10.4 12.0 96 0.3 NNW 15 20 8 11 1009.0 1009.1 7.6
22/08:00pm 12.7 9.8 12.3 97 0.2 NW 19 26 10 14 1009.3 1009.4 7.0
22/07:30pm 13.2 10.5 12.8 97 0.2 NNW 19 26 10 14 1009.1 1009.2 6.2
22/07:20pm 13.3 9.7 13.1 99 0.1 NNW 24 32 13 17 1008.9 1009.0 6.2
22/07:00pm 13.6 8.9 13.2 97 0.2 NNW 30 39 16 21 1008.6 1008.7 6.0
22/06:54pm 13.7 9.0 13.3 97 0.2 NNW 30 37 16 20 1008.7 1008.8 5.8
22/06:43pm 13.9 9.7 13.5 97 0.2 NNW 28 46 15 25 1008.5 1008.6 5.2
22/06:30pm 14.0 11.0 13.6 97 0.2 NNW 22 32 12 17 1008.3 1008.4 4.8
22/06:00pm 14.1 11.1 13.7 97 0.2 N 22 35 12 19 1008.0 1008.1 4.6
22/05:30pm 14.5 11.1 13.6 94 0.5 N 24 35 13 19 1007.7 1007.8 3.4
22/05:11pm 14.5 11.1 13.6 94 0.5 N 24 33 13 18 1007.4 1007.5 3.0
22/05:00pm 14.5 10.3 13.6 94 0.5 N 28 37 15 20 1007.3 1007.4 3.0
22/04:58pm 14.6 10.4 13.5 93 0.6 N 28 37 15 20 1007.3 1007.4 2.8
22/04:30pm 14.9 11.4 13.3 90 0.9 N 24 33 13 18 1007.4 1007.5 1.2
22/04:16pm 14.7 11.2 13.3 91 0.8 NNW 24 32 13 17 1007.3 1007.4 1.0
22/04:04pm 15.1 10.3 12.9 87 1.2 NNW 30 41 16 22 1007.4 1007.5 0.6
22/04:00pm 15.2 10.8 12.9 86 1.3 NNW 28 41 15 22 1007.4 1007.5 0.6
22/03:30pm 17.6 12.9 10.5 63 3.8 NNW 26 33 14 18 1007.1 1007.2 0.2
22/03:00pm 18.4 13.8 9.8 57 4.6 N 24 39 13 21 1007.0 1007.1 0.2
22/02:30pm 17.2 13.0 11.1 67 3.3 NNW 24 37 13 20 1006.9 1007.0 0.2
22/02:00pm 16.9 13.8 11.6 71 2.9 N 19 26 10 14 1007.0 1007.1 0.2
22/01:30pm 18.3 13.0 9.9 58 4.5 N 28 39 15 21 1006.7 1006.7 0.0
22/01:00pm 18.4 13.0 9.5 56 4.7 N 28 39 15 21 1006.8 1006.8 0.0
22/12:30pm 18.0 12.5 9.3 56 4.6 N 28 37 15 20 1007.2 1007.3 0.0
22/12:00pm 17.5 12.1 9.5 59 4.2 N 28 39 15 21 1007.7 1007.8 0.0
22/11:30am 17.8 11.6 9.2 57 4.5 N 32 46 17 25 1008.3 1008.4 0.0
22/11:00am 17.2 9.6 9.2 59 4.2 NNE 39 54 21 29 1007.9 1008.0 0.0
22/10:30am 17.1 9.9 9.3 60 4.1 NNE 37 57 20 31 1008.5 1008.6 0.0
22/10:08am 16.7 9.8 9.0 60 4.0 NNE 35 54 19 29 1009.0 1009.1 0.0
22/10:00am 16.4 9.1 8.8 60 3.9 NNE 37 52 20 28 1009.1 1009.2 0.0
22/09:37am 15.9 8.7 9.1 64 3.5 NNE 37 56 20 30 1009.5 1009.6 0.0
22/09:30am 15.5 9.1 9.3 66 3.2 NNE 33 50 18 27 1009.6 1009.7 0.0
22/09:00am 15.2 9.0 9.2 67 3.1 NNE 32 41 17 22 1009.9 1010.0 0.0
22/08:30am 14.7 8.5 9.5 71 2.7 NNE 32 44 17 24 1010.2 1010.3 0.0
22/08:00am 14.2 8.1 9.8 75 2.3 NNE 32 41 17 22 1010.1 1010.2 0.0
22/07:30am 14.0 7.7 9.7 75 2.2 NNE 33 43 18 23 1010.2 1010.3 0.0
22/07:00am 13.8 7.7 9.9 77 2.0 NNE 32 39 17 21 1010.3 1010.4 0.0
22/06:30am 14.0 8.4 10.0 77 2.1 NNE 30 39 16 21 1010.8 1010.8 0.0
22/06:00am 14.0 7.8 10.0 77 2.1 NNE 33 43 18 23 1010.9 1010.9 0.0
22/05:30am 13.9 8.0 10.3 79 1.9 NNE 32 50 17 27 1011.2 1011.2 0.0
22/05:29am 13.8 7.9 10.4 80 1.8 NNE 32 50 17 27 1011.2 1011.2 0.0
22/05:00am 13.8 7.7 10.4 80 1.8 NNE 33 46 18 25 1011.8 1011.8 0.0
22/04:30am 13.8 8.3 10.4 80 1.8 NNE 30 43 16 23 1012.3 1012.3 0.0
22/04:00am 13.9 8.3 10.3 79 1.9 NNE 30 41 16 22 1012.6 1012.6 0.0
22/03:30am 13.9 8.8 10.5 80 1.8 NNE 28 35 15 19 1012.9 1012.9 0.0
22/03:00am 13.7 8.9 10.2 79 1.8 NNE 26 30 14 16 1013.6 1013.6 0.0
22/02:30am 13.6 8.4 10.3 80 1.7 NNE 28 35 15 19 1014.0 1014.0 0.0
22/02:00am 13.8 8.3 10.4 80 1.8 NNE 30 37 16 20 1014.0 1014.0 0.0
22/01:30am 13.8 8.6 10.4 80 1.8 NNE 28 35 15 19 1014.3 1014.3 0.0
22/01:00am 13.6 8.9 10.5 81 1.6 NNE 26 33 14 18 1014.5 1014.5 0.0
22/12:30am 13.7 8.9 10.4 80 1.7 NNE 26 33 14 18 1015.1 1015.1 0.0
22/12:00am 13.7 9.3 10.4 80 1.7 NNE 24 33 13 18 1015.2 1015.2 0.0
 
Date/Time
CST
Temp
°C
App
Temp
°C
Dew
Point
Rel
Hum
%
Delta-T
°C
Wind Press
QNH
hPa
Press
MSL
hPa
Rain
since 9 am
mm
Dir
 
Spd
km/h
Gust
km/h
Spd
kts
Gust
kts
21/11:30pm 13.7 9.8 10.7 82 1.6 NNE 22 30 12 16 1015.3 1015.3 0.0
21/11:00pm 13.8 9.5 10.8 82 1.6 NNE 24 32 13 17 1015.6 1015.6 0.0
21/10:30pm 14.3 10.4 10.7 79 1.9 NNE 22 28 12 15 1015.7 1015.7 0.0
21/10:00pm 14.6 10.3 10.6 77 2.1 NNE 24 30 13 16 1016.2 1016.2 0.0
21/09:30pm 14.8 11.2 10.6 76 2.2 NNE 20 26 11 14 1016.5 1016.5 0.0
21/09:00pm 15.1 11.5 10.6 74 2.4 NNE 20 24 11 13 1016.4 1016.4 0.0
21/08:30pm 15.2 11.8 10.5 73 2.5 NNE 19 20 10 11 1016.5 1016.5 0.0
21/08:00pm 14.8 11.8 10.8 77 2.1 NE 17 19 9 10 1016.4 1016.4 0.0

Other Formats:

Comma delimited format used in spreadsheet applications
http://www.bom.gov.au/fwo/IDS60801/IDS60801.94821.axf

JavaScript Object Notation format (JSON) in row-major order
http://www.bom.gov.au/fwo/IDS60801/IDS60801.94821.json